Time;durP1;ratioP1;P1;durP2;ratioP2;P2;SDS_P1;SDS_P2;PMS_P1;PMS_P2;Temp;Humidity;BMP_temperature;BMP_pressure;BME280_temperature;BME280_humidity;BME280_pressure;Samples;Min_cycle;Max_cycle;Signal;HPM_P1;HPM_P2
2021/06/10 00:00:08;;;;;;;21.87;12.73;;;;;;;15.08;100.00;100168.73;1709743;82;21086;-88
2021/06/10 00:02:38;;;;;;;20.30;13.95;;;;;;;15.12;100.00;100167.93;1726673;81;21090;-87
2021/06/10 00:05:09;;;;;;;18.55;12.82;;;;;;;15.19;100.00;100168.11;1709146;82;21453;-88
2021/06/10 00:07:37;;;;;;;18.13;13.17;;;;;;;15.23;100.00;100168.14;1741957;80;20957;-88
2021/06/10 00:10:12;;;;;;;15.15;11.48;;;;;;;15.26;100.00;100167.84;1732773;81;21198;-87
2021/06/10 00:12:42;;;;;;;20.77;13.80;;;;;;;15.28;100.00;100173.73;1757641;80;21528;-88
2021/06/10 00:15:15;;;;;;;19.70;13.08;;;;;;;15.34;100.00;100169.66;1768026;80;21454;-88
2021/06/10 00:17:43;;;;;;;24.72;13.15;;;;;;;15.39;100.00;100168.69;1711232;82;21501;-88
2021/06/10 00:20:12;;;;;;;23.85;13.58;;;;;;;15.40;100.00;100163.30;1727501;80;21544;-87
2021/06/10 00:22:40;;;;;;;17.60;13.38;;;;;;;15.43;100.00;100164.28;1707092;82;21153;-87
2021/06/10 00:25:09;;;;;;;17.98;13.13;;;;;;;15.41;100.00;100161.49;1732914;81;21176;-87
2021/06/10 00:27:38;;;;;;;16.67;12.82;;;;;;;15.34;100.00;100160.48;1707046;81;21603;-88
2021/06/10 00:30:08;;;;;;;19.07;12.23;;;;;;;15.27;100.00;100156.34;1734806;81;21094;-88
2021/06/10 00:32:36;;;;;;;15.32;11.83;;;;;;;15.26;100.00;100157.35;1791357;79;21120;-87
2021/06/10 00:35:05;;;;;;;19.50;11.57;;;;;;;15.29;100.00;100158.33;1777087;79;21070;-88
2021/06/10 00:37:32;;;;;;;18.25;12.73;;;;;;;15.33;100.00;100161.45;1733228;82;21799;-87
2021/06/10 00:40:00;;;;;;;19.10;12.33;;;;;;;15.34;100.00;100165.26;1705020;82;21027;-88
2021/06/10 00:42:28;;;;;;;21.27;14.05;;;;;;;15.33;100.00;100163.61;1706123;82;21074;-89
2021/06/10 00:44:56;;;;;;;21.90;13.70;;;;;;;15.29;100.00;100163.10;1705515;82;21120;-87
2021/06/10 00:47:23;;;;;;;24.27;14.47;;;;;;;15.26;100.00;100159.47;1740663;80;21282;-89
2021/06/10 00:49:53;;;;;;;19.67;13.65;;;;;;;15.26;100.00;100160.78;1709792;82;21050;-87
2021/06/10 00:52:20;;;;;;;20.72;13.28;;;;;;;15.23;100.00;100157.66;1741229;80;21037;-89
2021/06/10 00:54:47;;;;;;;20.75;13.15;;;;;;;15.22;100.00;100159.44;1697596;82;21537;-88
2021/06/10 00:57:14;;;;;;;19.17;12.63;;;;;;;15.20;100.00;100162.73;1743229;80;21540;-87
2021/06/10 00:59:41;;;;;;;17.25;12.00;;;;;;;15.17;100.00;100163.53;1753584;80;20966;-88
2021/06/10 01:02:08;;;;;;;18.57;11.35;;;;;;;15.16;100.00;100165.81;1731299;80;21080;-88
2021/06/10 01:04:35;;;;;;;22.98;13.80;;;;;;;15.16;100.00;100169.75;1743567;81;21031;-88
2021/06/10 01:07:26;;;;;;;23.55;12.90;;;;;;;15.12;100.00;100169.23;1692718;83;21790;-89
2021/06/10 01:10:02;;;;;;;17.95;12.47;;;;;;;15.11;100.00;100168.41;1734617;81;21081;-88
2021/06/10 01:12:46;;;;;;;21.45;12.40;;;;;;;15.10;100.00;100164.13;1734328;81;21165;-89
2021/06/10 01:15:15;;;;;;;14.98;12.13;;;;;;;15.10;100.00;100164.63;1701250;82;21102;-88
2021/06/10 01:17:44;;;;;;;17.30;12.10;;;;;;;15.04;100.00;100168.69;1735279;81;21094;-88
2021/06/10 01:20:25;;;;;;;22.07;12.43;;;;;;;14.99;100.00;100168.34;1712924;81;21125;-88
2021/06/10 01:23:01;;;;;;;21.70;12.78;;;;;;;14.98;100.00;100177.19;1692399;81;20987;-87
2021/06/10 01:25:42;;;;;;;19.90;13.53;;;;;;;14.96;100.00;100168.64;1706602;81;21101;-86
2021/06/10 01:28:27;;;;;;;16.35;12.18;;;;;;;14.98;100.00;100163.58;1696676;81;21664;-88
2021/06/10 01:30:59;;;;;;;17.45;12.90;;;;;;;15.01;100.00;100163.78;1695285;81;21706;-88
2021/06/10 01:33:43;;;;;;;22.20;13.72;;;;;;;15.02;100.00;100161.97;1738603;82;20946;-88
2021/06/10 01:36:15;;;;;;;17.55;12.95;;;;;;;15.01;100.00;100162.94;1681772;83;21082;-89
2021/06/10 01:38:47;;;;;;;21.87;12.23;;;;;;;14.99;100.00;100161.80;1668404;83;21592;-88
2021/06/10 01:41:16;;;;;;;17.75;12.63;;;;;;;14.99;100.00;100165.22;1693160;81;21116;-87
2021/06/10 01:43:44;;;;;;;18.35;12.85;;;;;;;15.00;100.00;100164.75;1699043;83;21144;-88
2021/06/10 01:46:12;;;;;;;17.77;12.30;;;;;;;14.99;100.00;100161.80;1731903;81;21013;-89
2021/06/10 01:48:47;;;;;;;21.87;12.93;;;;;;;14.98;100.00;100169.32;1751816;80;20974;-86
2021/06/10 01:51:17;;;;;;;22.27;12.70;;;;;;;14.99;100.00;100173.59;1713705;83;21154;-89
2021/06/10 01:53:47;;;;;;;16.93;13.15;;;;;;;15.00;100.00;100173.93;1699710;81;21838;-89
2021/06/10 01:56:17;;;;;;;16.62;12.05;;;;;;;15.02;100.00;100175.08;1697007;81;21671;-88
2021/06/10 01:58:46;;;;;;;19.27;13.25;;;;;;;15.01;100.00;100178.20;1722373;81;21683;-89
2021/06/10 02:01:15;;;;;;;21.90;13.25;;;;;;;15.02;100.00;100182.47;1744521;82;21524;-90
2021/06/10 02:03:44;;;;;;;24.05;12.68;;;;;;;14.99;100.00;100182.27;1703860;82;21591;-89
2021/06/10 02:06:12;;;;;;;19.55;12.98;;;;;;;14.98;100.00;100185.05;1706913;82;21195;-88
2021/06/10 02:08:44;;;;;;;18.10;12.53;;;;;;;14.96;100.00;100174.73;1704259;82;21588;-88
2021/06/10 02:11:11;;;;;;;19.45;12.25;;;;;;;14.97;100.00;100180.31;1695922;82;21089;-89
2021/06/10 02:13:39;;;;;;;22.50;12.60;;;;;;;14.99;100.00;100173.59;1690358;81;21046;-88
2021/06/10 02:16:08;;;;;;;19.30;12.95;;;;;;;15.02;100.00;100173.77;1722623;81;21155;-88
2021/06/10 02:18:40;;;;;;;20.75;12.73;;;;;;;15.03;100.00;100176.22;1724934;81;21066;-88
2021/06/10 02:21:10;;;;;;;23.57;12.78;;;;;;;15.06;100.00;100175.92;1726120;80;21180;-88
2021/06/10 02:23:43;;;;;;;21.10;12.53;;;;;;;15.07;100.00;100171.48;1733095;80;21022;-89
2021/06/10 02:26:12;;;;;;;29.18;13.93;;;;;;;15.10;100.00;100169.88;1737023;80;21119;-89
2021/06/10 02:28:39;;;;;;;16.85;12.47;;;;;;;15.13;100.00;100175.63;1737790;81;21623;-88
2021/06/10 02:31:09;;;;;;;18.67;14.25;;;;;;;15.16;100.00;100172.37;1679078;83;21008;-88
2021/06/10 02:33:38;;;;;;;14.70;12.00;;;;;;;15.18;100.00;100175.67;1743675;80;21188;-88
2021/06/10 02:36:09;;;;;;;19.00;12.28;;;;;;;15.21;100.00;100164.84;1732163;80;21060;-87
2021/06/10 02:38:40;;;;;;;16.37;12.58;;;;;;;15.25;100.00;100159.64;1741284;80;21088;-90
2021/06/10 02:41:10;;;;;;;24.32;13.50;;;;;;;15.27;100.00;100156.34;1746790;80;26966;-88
2021/06/10 02:43:38;;;;;;;20.27;14.43;;;;;;;15.31;100.00;100157.69;1729555;80;21018;-88
2021/06/10 02:46:09;;;;;;;21.10;15.35;;;;;;;15.36;100.00;100162.47;1744717;80;21086;-89
2021/06/10 02:48:39;;;;;;;23.95;15.20;;;;;;;15.37;100.00;100162.30;1723693;80;21036;-88
2021/06/10 02:51:08;;;;;;;19.32;13.98;;;;;;;15.41;100.00;100164.95;1739235;80;21093;-88
2021/06/10 02:53:36;;;;;;;25.10;14.05;;;;;;;15.45;100.00;100167.58;1737488;80;20958;-88
2021/06/10 02:56:05;;;;;;;17.82;13.05;;;;;;;15.50;100.00;100165.80;1731078;81;21878;-89
2021/06/10 02:58:34;;;;;;;23.67;13.85;;;;;;;15.54;100.00;100164.48;1734704;80;21703;-88
2021/06/10 03:01:06;;;;;;;28.10;15.15;;;;;;;15.58;100.00;100164.52;1725213;80;21163;-90
2021/06/10 03:03:36;;;;;;;33.80;16.02;;;;;;;15.65;100.00;100166.02;1740927;80;21493;-89
2021/06/10 03:06:06;;;;;;;32.88;15.60;;;;;;;15.74;100.00;100175.53;1694664;82;21022;-88
2021/06/10 03:08:35;;;;;;;29.12;15.90;;;;;;;15.82;100.00;100170.81;1738795;81;21286;-89
2021/06/10 03:11:06;;;;;;;23.00;15.08;;;;;;;15.93;100.00;100176.27;1728317;80;21081;-89
2021/06/10 03:13:35;;;;;;;21.33;14.95;;;;;;;16.04;100.00;100183.02;1732779;81;21043;-89
2021/06/10 03:16:04;;;;;;;33.45;15.85;;;;;;;16.12;100.00;100180.91;1708978;81;21105;-88
2021/06/10 03:18:33;;;;;;;27.75;16.75;;;;;;;16.22;100.00;100177.64;1681697;82;21157;-89
2021/06/10 03:21:01;;;;;;;27.15;17.27;;;;;;;16.36;100.00;100180.09;1722559;80;21143;-88
2021/06/10 03:23:29;;;;;;;26.42;16.67;;;;;;;16.49;100.00;100178.29;1700885;81;21026;-88
2021/06/10 03:26:01;;;;;;;24.87;16.30;;;;;;;16.59;100.00;100181.58;1684442;80;21050;-89
2021/06/10 03:28:31;;;;;;;25.68;16.75;;;;;;;16.71;100.00;100178.92;1730534;81;21160;-89
2021/06/10 03:30:58;;;;;;;25.50;18.17;;;;;;;16.83;100.00;100178.59;1731638;80;21022;-90
2021/06/10 03:33:28;;;;;;;23.83;17.42;;;;;;;16.95;100.00;100181.22;1714239;82;21447;-89
2021/06/10 03:35:57;;;;;;;27.52;18.90;;;;;;;17.07;100.00;100183.00;1753804;80;21109;-90
2021/06/10 03:38:26;;;;;;;32.80;20.23;;;;;;;17.17;100.00;100182.83;1689618;82;21079;-90
2021/06/10 03:40:56;;;;;;;27.90;18.85;;;;;;;17.29;100.00;100188.03;1736007;81;21083;-88
2021/06/10 03:43:24;;;;;;;55.55;19.48;;;;;;;17.39;100.00;100183.07;1715013;81;21573;-91
2021/06/10 03:46:03;;;;;;;;;;;;;;;;;;;;;
2021/06/10 03:48:31;;;;;;;30.32;20.77;;;;;;;17.58;100.00;100186.63;1699111;79;21453;-90
2021/06/10 03:50:58;;;;;;;28.23;21.07;;;;;;;17.67;100.00;100188.70;1746367;82;21188;-91
2021/06/10 03:53:35;;;;;;;28.37;20.87;;;;;;;17.69;100.00;100188.05;1752388;80;20978;-90
2021/06/10 03:56:05;;;;;;;32.93;21.87;;;;;;;17.70;100.00;100191.48;1755797;80;21003;-90
2021/06/10 03:58:42;;;;;;;27.35;21.75;;;;;;;17.64;100.00;100185.92;1725260;80;21185;-91
2021/06/10 04:01:15;;;;;;;31.50;22.22;;;;;;;17.65;100.00;100192.84;1719053;82;20956;-91
2021/06/10 04:03:42;;;;;;;31.10;21.65;;;;;;;17.64;100.00;100185.09;1760357;80;21976;-89
2021/06/10 04:06:14;;;;;;;30.35;21.27;;;;;;;17.69;100.00;100183.26;1714607;81;21045;-90
2021/06/10 04:08:44;;;;;;;28.77;20.52;;;;;;;17.72;100.00;100190.83;1689290;83;20984;-90
2021/06/10 04:11:13;;;;;;;29.25;20.72;;;;;;;17.76;100.00;100187.67;1774971;80;21070;-88
2021/06/10 04:13:41;;;;;;;31.95;21.15;;;;;;;17.80;100.00;100185.00;1765539;80;21434;-89
2021/06/10 04:16:09;;;;;;;25.60;20.68;;;;;;;17.90;100.00;100179.53;1735454;80;21054;-90
2021/06/10 04:18:43;;;;;;;23.77;18.82;;;;;;;17.99;100.00;100189.55;1700733;81;21069;-89
2021/06/10 04:21:07;;;;;;;25.48;19.17;;;;;;;18.08;100.00;100187.66;1650531;85;21070;-88
2021/06/10 04:23:39;;;;;;;24.82;19.60;;;;;;;18.17;100.00;100176.08;1665514;85;21597;-88
2021/06/10 04:26:16;;;;;;;25.70;18.57;;;;;;;18.24;100.00;100188.87;1640547;85;21086;-90
2021/06/10 04:28:39;;;;;;;27.87;18.10;;;;;;;18.29;100.00;100186.55;1668209;85;21144;-88
2021/06/10 04:31:08;;;;;;;24.05;17.70;;;;;;;18.32;100.00;100182.73;1591698;88;21591;-90
2021/06/10 04:33:36;;;;;;;23.20;17.50;;;;;;;18.39;100.00;100181.02;1644574;85;22411;-90
2021/06/10 04:36:05;;;;;;;20.85;18.12;;;;;;;18.48;100.00;100185.72;1650819;85;21378;-89
2021/06/10 04:38:32;;;;;;;20.75;17.65;;;;;;;18.58;100.00;100191.56;1644086;85;21100;-89
2021/06/10 04:41:00;;;;;;;19.60;17.23;;;;;;;18.67;100.00;100187.54;1670344;82;21038;-90
2021/06/10 04:43:28;;;;;;;21.40;16.42;;;;;;;18.73;100.00;100194.25;1733066;81;21066;-89
2021/06/10 04:45:59;;;;;;;19.20;15.13;;;;;;;18.80;100.00;100193.01;1711983;82;21128;-88
2021/06/10 04:48:29;;;;;;;16.35;13.70;;;;;;;18.84;100.00;100186.88;1718161;81;22328;-89
2021/06/10 04:50:57;;;;;;;21.25;14.35;;;;;;;18.87;100.00;100188.66;1737189;82;21015;-89
2021/06/10 04:53:24;;;;;;;22.17;15.50;;;;;;;18.91;100.00;100187.79;1731763;81;21138;-90
2021/06/10 04:55:53;;;;;;;19.87;16.20;;;;;;;18.95;100.00;100190.95;1732254;82;21627;-90
2021/06/10 04:58:23;;;;;;;18.17;15.70;;;;;;;19.02;100.00;100191.86;1692289;82;21487;-90
2021/06/10 05:00:53;;;;;;;20.65;15.18;;;;;;;19.05;100.00;100195.44;1757239;80;21208;-90
2021/06/10 05:03:23;;;;;;;25.05;16.17;;;;;;;19.14;100.00;100193.03;1734522;80;21592;-90
2021/06/10 05:05:54;;;;;;;22.30;16.27;;;;;;;19.27;100.00;100190.27;1737579;80;21033;-89
2021/06/10 05:08:19;;;;;;;19.98;15.93;;;;;;;19.41;100.00;100193.88;1738087;80;21025;-89
2021/06/10 05:10:46;;;;;;;24.30;15.95;;;;;;;19.52;100.00;100193.42;1727010;80;21109;-89
2021/06/10 05:13:18;;;;;;;35.48;16.27;;;;;;;19.62;100.00;100190.48;1738884;80;21096;-89
2021/06/10 05:15:46;;;;;;;17.75;14.23;;;;;;;19.71;100.00;100181.45;1703776;82;21910;-90
2021/06/10 05:18:14;;;;;;;18.77;15.50;;;;;;;19.79;100.00;100186.62;1700853;82;21086;-90
2021/06/10 05:20:44;;;;;;;18.85;15.13;;;;;;;19.85;100.00;100178.48;1684375;83;21086;-90
2021/06/10 05:23:15;;;;;;;33.53;15.45;;;;;;;19.93;100.00;100177.53;1725506;81;21026;-90
2021/06/10 05:25:46;;;;;;;16.62;14.05;;;;;;;20.00;100.00;100180.57;1720968;81;21146;-90
2021/06/10 05:28:21;;;;;;;14.00;11.93;;;;;;;20.09;100.00;100178.61;1755324;80;21829;-90
2021/06/10 05:30:49;;;;;;;18.12;12.18;;;;;;;20.16;100.00;100182.13;1733213;81;21619;-88
2021/06/10 05:33:30;;;;;;;11.28;10.25;;;;;;;20.15;100.00;100179.17;1760086;80;21018;-91
2021/06/10 05:35:59;;;;;;;25.75;11.85;;;;;;;20.17;100.00;100179.81;1663141;83;21563;-91
2021/06/10 05:38:27;;;;;;;11.73;10.55;;;;;;;20.19;100.00;100180.93;1724997;81;21081;-90
2021/06/10 05:40:54;;;;;;;20.70;11.88;;;;;;;20.21;100.00;100184.73;1726252;81;20974;-90
2021/06/10 05:43:23;;;;;;;11.22;10.13;;;;;;;20.25;100.00;100184.16;1715065;80;21092;-90
2021/06/10 05:45:52;;;;;;;11.45;8.90;;;;;;;20.31;100.00;100181.27;1736322;80;21121;-91
2021/06/10 05:48:21;;;;;;;9.30;8.38;;;;;;;20.40;100.00;100180.10;1755366;80;21039;-90
2021/06/10 05:50:48;;;;;;;10.78;9.50;;;;;;;20.41;100.00;100177.77;1729336;81;21800;-91
2021/06/10 05:53:25;;;;;;;8.65;7.80;;;;;;;20.42;100.00;100182.58;1732776;81;21053;-92
2021/06/10 05:55:48;;;;;;;9.63;8.10;;;;;;;20.45;100.00;100177.72;1744865;80;21105;-91
2021/06/10 05:58:22;;;;;;;8.18;7.47;;;;;;;20.52;100.00;100179.08;1729631;79;21036;-90
2021/06/10 06:00:50;;;;;;;8.65;7.75;;;;;;;20.56;100.00;100175.06;1748031;80;20990;-90
2021/06/10 06:03:23;;;;;;;8.15;7.45;;;;;;;20.58;100.00;100173.53;1731893;80;22275;-91
2021/06/10 06:05:53;;;;;;;8.90;7.50;;;;;;;20.74;100.00;100177.24;1713433;80;21179;-92
2021/06/10 06:08:37;;;;;;;;;;;;;;;;;;;;;
2021/06/10 06:11:23;;;;;;;;;;;;;;;;;;;;;
2021/06/10 06:13:58;;;;;;;;;;;;;;;;;;;;;
2021/06/10 06:16:30;;;;;;;8.95;7.03;;;;;;;20.99;100.00;100171.50;1428089;98;21233;-91
2021/06/10 06:19:01;;;;;;;11.00;7.30;;;;;;;21.08;100.00;100172.14;1404398;99;21208;-93
2021/06/10 06:21:27;;;;;;;7.05;6.45;;;;;;;21.16;100.00;100171.19;1582983;87;21093;-91
2021/06/10 06:23:57;;;;;;;9.55;7.58;;;;;;;21.25;100.00;100170.01;1570431;89;21161;-90
2021/06/10 06:26:36;;;;;;;;;;;;;;;;;;;;;
2021/06/10 06:29:01;;;;;;;8.75;7.85;;;;;;;21.41;100.00;100167.52;1601860;84;21205;-89
2021/06/10 06:31:39;;;;;;;8.28;7.58;;;;;;;21.47;100.00;100171.21;1647559;83;21101;-87
2021/06/10 06:34:05;;;;;;;9.75;7.58;;;;;;;21.54;100.00;100168.08;1617427;85;21329;-91
2021/06/10 06:36:46;;;;;;;;;;;;;;;;;;;;;
2021/06/10 06:39:08;;;;;;;7.33;6.62;;;;;;;21.56;100.00;100174.80;1695846;80;21474;-90
2021/06/10 06:41:37;;;;;;;7.78;6.70;;;;;;;21.58;100.00;100174.66;1665612;82;21047;-91
2021/06/10 06:44:08;;;;;;;6.83;6.22;;;;;;;21.63;100.00;100172.22;1759547;80;21098;-91
2021/06/10 06:46:36;;;;;;;6.60;6.10;;;;;;;21.67;100.00;100172.11;1738948;80;21014;-90
2021/06/10 06:49:05;;;;;;;7.30;6.70;;;;;;;21.72;100.00;100175.00;1732901;79;21544;-90
2021/06/10 06:51:33;;;;;;;7.03;6.33;;;;;;;21.83;100.00;100175.44;1712302;80;21066;-90
2021/06/10 06:54:07;;;;;;;8.13;6.10;;;;;;;21.94;100.00;100181.98;1751309;80;21412;-89
2021/06/10 06:56:33;;;;;;;7.17;6.47;;;;;;;22.06;100.00;100178.55;1738627;80;21351;-90
2021/06/10 06:59:00;;;;;;;8.00;7.20;;;;;;;22.18;100.00;100177.44;1744047;80;21113;-90
2021/06/10 07:01:29;;;;;;;7.65;6.95;;;;;;;22.30;100.00;100178.14;1766692;80;21465;-90
2021/06/10 07:03:59;;;;;;;6.95;6.33;;;;;;;22.36;100.00;100181.30;1771683;80;21565;-90
2021/06/10 07:06:26;;;;;;;6.87;6.15;;;;;;;22.44;100.00;100182.97;1749707;80;21808;-91
2021/06/10 07:08:58;;;;;;;6.58;5.97;;;;;;;22.55;100.00;100184.19;1769260;80;21002;-91
2021/06/10 07:11:37;;;;;;;7.00;5.62;;;;;;;22.64;100.00;100183.77;1729546;80;21077;-91
2021/06/10 07:14:01;;;;;;;7.37;6.70;;;;;;;22.72;100.00;100184.08;1764238;80;21636;-90
2021/06/10 07:16:42;;;;;;;;;;;;;;;;;;;;;
2021/06/10 07:19:08;;;;;;;8.13;7.33;;;;;;;22.87;100.00;100182.53;1648676;81;21240;-90
2021/06/10 07:21:51;;;;;;;8.58;7.78;;;;;;;23.03;100.00;100188.42;1721823;80;21062;-90
2021/06/10 07:24:20;;;;;;;8.60;7.70;;;;;;;23.18;100.00;100179.72;1737281;80;20974;-90
2021/06/10 07:26:50;;;;;;;8.80;7.90;;;;;;;23.25;100.00;100176.53;1712935;81;21124;-90
2021/06/10 07:29:25;;;;;;;8.15;7.20;;;;;;;23.31;100.00;100179.66;1749724;80;21078;-90
2021/06/10 07:31:50;;;;;;;6.97;6.28;;;;;;;23.30;100.00;100175.90;1738664;80;21482;-88
2021/06/10 07:34:17;;;;;;;6.92;6.33;;;;;;;23.22;100.00;100175.61;1725563;80;20975;-91
2021/06/10 07:36:51;;;;;;;10.32;5.97;;;;;;;23.11;100.00;100175.72;1741664;80;21465;-90
2021/06/10 07:39:15;;;;;;;7.60;6.30;;;;;;;23.02;100.00;100173.51;1759737;80;21107;-90
2021/06/10 07:41:45;;;;;;;6.00;5.50;;;;;;;22.98;100.00;100176.57;1734825;80;21085;-89
2021/06/10 07:44:12;;;;;;;6.33;5.72;;;;;;;23.07;100.00;100177.67;1737658;81;21078;-91
2021/06/10 07:46:40;;;;;;;6.20;5.65;;;;;;;23.20;100.00;100174.99;1734936;80;21007;-89
2021/06/10 07:49:08;;;;;;;7.20;5.65;;;;;;;23.38;100.00;100176.16;1771996;80;21015;-90
2021/06/10 07:51:40;;;;;;;7.10;6.50;;;;;;;23.53;100.00;100173.24;1741302;80;21049;-89
2021/06/10 07:54:08;;;;;;;6.70;6.17;;;;;;;23.69;100.00;100175.91;1739784;80;21092;-89
2021/06/10 07:56:38;;;;;;;6.95;6.25;;;;;;;23.82;100.00;100175.85;1734266;80;21091;-90
2021/06/10 07:59:09;;;;;;;8.68;7.10;;;;;;;23.82;100.00;100176.34;1732423;80;21093;-89
2021/06/10 08:01:38;;;;;;;8.70;6.42;;;;;;;23.80;100.00;100171.25;1719346;79;21159;-90
2021/06/10 08:04:05;;;;;;;6.45;5.85;;;;;;;23.91;100.00;100170.59;1733842;80;21677;-90
2021/06/10 08:06:36;;;;;;;6.72;6.15;;;;;;;23.96;100.00;100176.59;1765106;80;21117;-90
2021/06/10 08:09:06;;;;;;;6.60;6.00;;;;;;;23.88;100.00;100174.98;1768569;80;21525;-92
2021/06/10 08:11:35;;;;;;;5.92;5.42;;;;;;;23.77;100.00;100173.83;1712746;80;21084;-90
2021/06/10 08:14:06;;;;;;;6.25;5.65;;;;;;;23.67;100.00;100179.31;1735711;80;20998;-90
2021/06/10 08:16:32;;;;;;;5.80;4.80;;;;;;;23.63;100.00;100177.07;1738627;80;21113;-90
2021/06/10 08:18:59;;;;;;;6.12;5.62;;;;;;;23.55;100.00;100175.98;1728559;80;21082;-90
2021/06/10 08:21:28;;;;;;;5.80;5.25;;;;;;;23.49;100.00;100171.53;1737926;80;21114;-89
2021/06/10 08:23:56;;;;;;;7.17;5.90;;;;;;;23.43;100.00;100169.72;1717818;80;21180;-89
2021/06/10 08:26:24;;;;;;;6.87;6.17;;;;;;;23.36;100.00;100167.58;1718194;81;21615;-88
2021/06/10 08:28:51;;;;;;;8.03;6.58;;;;;;;23.30;100.00;100163.95;1723733;80;21052;-89
2021/06/10 08:31:19;;;;;;;6.87;6.17;;;;;;;23.26;100.00;100163.55;1744617;80;21163;-89
2021/06/10 08:33:46;;;;;;;7.20;6.50;;;;;;;23.24;100.00;100157.62;1766559;80;21120;-91
2021/06/10 08:36:18;;;;;;;8.78;5.60;;;;;;;23.25;100.00;100160.59;1743152;80;21042;-89
2021/06/10 08:38:46;;;;;;;7.15;5.95;;;;;;;23.34;100.00;100160.36;1718223;80;21088;-90
2021/06/10 08:41:14;;;;;;;5.97;5.58;;;;;;;23.49;100.00;100155.59;1753355;80;21049;-89
2021/06/10 08:43:45;;;;;;;9.10;6.40;;;;;;;23.66;100.00;100153.77;1726846;81;21120;-91
2021/06/10 08:46:13;;;;;;;6.55;5.95;;;;;;;23.74;100.00;100154.31;1733972;80;21235;-91
2021/06/10 08:48:43;;;;;;;6.53;5.78;;;;;;;23.87;100.00;100157.41;1743937;80;21104;-89
2021/06/10 08:51:13;;;;;;;6.92;5.45;;;;;;;24.04;100.00;100146.28;1728206;80;21137;-90
2021/06/10 08:53:42;;;;;;;6.37;5.87;;;;;;;24.29;100.00;100145.47;1755967;80;21538;-90
2021/06/10 08:56:10;;;;;;;6.65;5.92;;;;;;;24.54;100.00;100131.64;1743068;80;21010;-91
2021/06/10 08:58:39;;;;;;;5.90;4.97;;;;;;;24.75;100.00;100136.27;1692302;81;21110;-90
2021/06/10 09:01:12;;;;;;;5.87;5.33;;;;;;;24.97;100.00;100139.30;1733433;80;21141;-90
2021/06/10 09:03:36;;;;;;;6.17;5.55;;;;;;;25.10;100.00;100132.18;1733859;80;21042;-87
2021/06/10 09:06:17;;;;;;;5.90;5.40;;;;;;;25.17;100.00;100129.75;1731143;80;22381;-86
2021/06/10 09:08:47;;;;;;;6.83;4.97;;;;;;;25.30;100.00;100124.77;1758774;80;21608;-90
2021/06/10 09:11:24;;;;;;;6.35;4.90;;;;;;;25.46;100.00;100127.34;1736065;81;21302;-89
2021/06/10 09:13:59;;;;;;;5.60;5.15;;;;;;;25.63;100.00;100125.37;1713511;82;21593;-91
2021/06/10 09:16:48;;;;;;;;;;;;;;;;;;;;;
2021/06/10 09:19:13;;;;;;;5.10;4.58;;;;;;;25.89;100.00;100118.82;1739240;81;21041;-91
2021/06/10 09:21:55;;;;;;;5.87;4.90;;;;;;;26.04;100.00;100119.72;1701773;84;21023;-90
2021/06/10 09:24:30;;;;;;;5.33;4.92;;;;;;;26.21;100.00;100120.41;1705892;83;21463;-89
2021/06/10 09:27:06;;;;;;;5.62;5.03;;;;;;;26.33;100.00;100117.20;1717994;81;21049;-89
2021/06/10 09:29:42;;;;;;;4.45;4.15;;;;;;;26.27;100.00;100111.47;1740558;82;20991;-91
2021/06/10 09:32:14;;;;;;;5.85;4.65;;;;;;;26.12;91.17;100111.41;1715521;81;20962;-90
2021/06/10 09:34:56;;;;;;;5.67;4.72;;;;;;;25.76;94.98;100117.17;1717994;81;21026;-91
2021/06/10 09:37:42;;;;;;;5.20;4.80;;;;;;;25.37;98.73;100115.34;1742753;81;21146;-90
2021/06/10 09:40:15;;;;;;;7.25;5.55;;;;;;;25.08;100.00;100107.11;1714130;81;21607;-89
2021/06/10 09:42:49;;;;;;;4.50;4.10;;;;;;;24.79;100.00;100106.84;1718518;82;21017;-91
2021/06/10 09:45:30;;;;;;;5.35;4.85;;;;;;;24.70;100.00;100107.64;1664680;83;21109;-90
2021/06/10 09:47:55;;;;;;;5.05;4.55;;;;;;;24.79;100.00;100100.69;1714942;81;21076;-90
2021/06/10 09:50:46;;;;;;;5.20;4.80;;;;;;;25.04;100.00;100089.94;1724419;80;21095;-91
2021/06/10 09:53:14;;;;;;;4.90;4.47;;;;;;;25.36;100.00;100093.22;1736734;80;21520;-90
2021/06/10 09:55:56;;;;;;;5.10;4.35;;;;;;;25.74;100.00;100090.45;1726768;81;21108;-89
2021/06/10 09:58:35;;;;;;;5.50;4.85;;;;;;;26.04;100.00;100089.59;1716235;81;20957;-90
2021/06/10 10:01:19;;;;;;;4.20;3.90;;;;;;;26.30;100.00;100089.14;1712113;82;21080;-90
2021/06/10 10:03:50;;;;;;;4.37;4.08;;;;;;;26.52;96.00;100088.53;1719232;80;21539;-89
2021/06/10 10:06:30;;;;;;;5.20;4.53;;;;;;;26.69;93.18;100092.64;1739283;80;21537;-90
2021/06/10 10:09:01;;;;;;;4.25;3.95;;;;;;;26.85;91.34;100087.64;1742083;81;21149;-89
2021/06/10 10:11:33;;;;;;;4.72;4.33;;;;;;;27.00;93.35;100094.63;1726171;81;22051;-92
2021/06/10 10:14:05;;;;;;;4.87;4.47;;;;;;;27.08;85.10;100093.45;1729034;80;21511;-89
2021/06/10 10:16:37;;;;;;;;;;;;;;;27.08;84.58;100087.56;1735507;80;21002;-90
2021/06/10 10:19:04;;;;;;;5.55;4.55;;;;;;;27.11;94.23;100085.48;1737391;80;20154;-88
2021/06/10 10:21:36;;;;;;;4.08;3.70;;;;;;;27.20;85.60;100084.05;1732693;80;21819;-89
2021/06/10 10:24:10;;;;;;;4.17;3.83;;;;;;;27.27;87.99;100079.88;1702586;81;23675;-91
2021/06/10 10:26:40;;;;;;;3.95;3.65;;;;;;;27.19;79.51;100082.42;1703215;81;21118;-89
2021/06/10 10:29:31;;;;;;;8.45;4.85;;;;;;;27.02;72.10;100085.85;1677298;83;21221;-94
2021/06/10 10:31:59;;;;;;;7.55;4.33;;;;;;;26.88;75.47;100085.84;1757357;80;21077;-91
2021/06/10 10:34:31;;;;;;;4.85;3.70;;;;;;;26.91;84.93;100080.84;1745520;81;21086;-92
2021/06/10 10:36:58;;;;;;;4.45;4.12;;;;;;;27.06;92.27;100077.63;1732419;81;21021;-89
2021/06/10 10:39:48;;;;;;;;;;;;;;;;;;;;;
2021/06/10 10:45:17;;;;;;;8.78;4.30;;;;;;;27.32;87.87;100082.13;1420585;97;21188;-92
2021/06/10 10:49:02;;;;;;;;;;;;;;;;;;;;;
2021/06/10 10:50:47;;;;;;;4.17;3.80;;;;;;;27.22;80.27;100072.06;1397143;96;21222;-88
2021/06/10 10:53:21;;;;;;;4.60;4.20;;;;;;;27.14;79.44;100070.28;1496312;92;21224;-90
2021/06/10 10:56:10;;;;;;;4.20;3.77;;;;;;;27.16;85.69;100074.87;1554798;86;21704;-90
2021/06/10 10:58:55;;;;;;;;;;;;;;;;;;;;;
2021/06/10 11:01:31;;;;;;;5.78;3.70;;;;;;;27.32;74.20;100078.11;1513651;92;21635;-90
2021/06/10 11:04:19;;;;;;;;;;;;;;;;;;;;;
2021/06/10 11:06:51;;;;;;;;;;;;;;;;;;;;;
2021/06/10 11:09:24;;;;;;;3.50;3.30;;;;;;;27.57;59.13;100066.78;1481575;94;21669;-91
2021/06/10 11:12:11;;;;;;;;;;;;;;;;;;;;;
2021/06/10 11:14:55;;;;;;;;;;;;;;;;;;;;;
2021/06/10 11:34:04;;;;;;;;;;;;;;;;;;;;;
2021/06/10 11:37:12;;;;;;;;;;;;;;;;;;;;;
2021/06/10 11:42:08;;;;;;;;;;;;;;;;;;;;;
2021/06/10 11:53:27;;;;;;;;;;;;;;;;;;;;;
2021/06/10 11:56:21;;;;;;;;;;;;;;;;;;;;;
2021/06/10 11:59:40;;;;;;;;;;;;;;;;;;;;;
2021/06/10 12:03:15;;;;;;;;;;;;;;;;;;;;;
2021/06/10 12:05:59;;;;;;;;;;;;;;;;;;;;;
2021/06/10 12:09:20;;;;;;;18.62;3.02;;;;;;;28.07;48.37;100039.78;1278409;108;21208;-87
2021/06/10 12:12:12;;;;;;;2.52;2.30;;;;;;;27.99;50.28;100034.28;1304369;107;21133;-87
2021/06/10 12:14:58;;;;;;;;;;;;;;;;;;;;;
2021/06/10 12:21:52;;;;;;;10.68;3.22;;;;;;;28.11;45.05;100034.21;1346928;103;21178;-87
2021/06/10 12:24:22;;;;;;;2.62;2.30;;;;;;;27.98;51.71;100024.63;1366428;102;21214;-87
2021/06/10 12:26:52;;;;;;;;;;;;;;;28.01;51.10;100022.27;1424784;97;21173;-86
2021/06/10 12:29:22;;;;;;;3.15;2.83;;;;;;;28.08;50.07;100028.03;1445138;96;20211;-86
2021/06/10 12:31:52;;;;;;;4.65;3.62;;;;;;;28.20;53.10;100012.66;1424304;98;21144;-88
2021/06/10 12:34:25;;;;;;;13.53;3.87;;;;;;;28.26;52.64;100014.34;1488156;94;21529;-87
2021/06/10 12:36:54;;;;;;;14.10;4.28;;;;;;;28.34;55.19;100011.78;1539424;87;21065;-88
2021/06/10 12:39:58;;;;;;;;;;;;;;;;;;;;;